createdAt,value
2023-02-21T00:01:58.256Z,11.70
2023-02-21T00:04:43.749Z,13.10
2023-02-21T00:07:29.295Z,12.90
2023-02-21T00:10:14.653Z,11.90
2023-02-21T00:13:00.160Z,11.70
2023-02-21T00:15:45.694Z,13.10
2023-02-21T00:18:31.477Z,13.00
2023-02-21T00:21:18.089Z,12.80
2023-02-21T00:24:03.547Z,12.90
2023-02-21T00:26:49.028Z,12.20
2023-02-21T00:29:34.452Z,11.90
2023-02-21T00:32:19.976Z,12.30
2023-02-21T00:35:05.447Z,13.60
2023-02-21T00:37:50.933Z,12.70
2023-02-21T00:40:36.365Z,11.80
2023-02-21T00:43:21.665Z,11.00
2023-02-21T00:46:07.066Z,11.80
2023-02-21T00:48:52.653Z,12.50
2023-02-21T00:51:38.193Z,13.50
2023-02-21T00:54:23.659Z,11.80
2023-02-21T00:57:09.057Z,12.40
2023-02-21T00:59:54.502Z,12.90
2023-02-21T01:02:40.064Z,12.50
2023-02-21T01:05:26.009Z,12.00
2023-02-21T01:08:11.505Z,12.60
2023-02-21T01:10:58.000Z,12.70
2023-02-21T01:13:43.565Z,12.40
2023-02-21T01:16:28.937Z,13.70
2023-02-21T01:19:14.284Z,12.90
2023-02-21T01:21:59.677Z,12.50
2023-02-21T01:24:45.054Z,12.10
2023-02-21T01:27:30.550Z,12.30
2023-02-21T01:30:16.154Z,11.30
2023-02-21T01:33:01.399Z,11.30
2023-02-21T01:35:46.939Z,11.30
2023-02-21T01:38:32.436Z,11.90
2023-02-21T01:41:18.119Z,11.70
2023-02-21T01:44:17.934Z,12.00
2023-02-21T01:47:03.419Z,11.20
2023-02-21T01:49:50.537Z,12.00
2023-02-21T01:52:36.596Z,12.20
2023-02-21T01:55:23.064Z,11.40
2023-02-21T01:58:09.313Z,11.40
2023-02-21T02:00:54.941Z,12.40
2023-02-21T02:03:40.602Z,13.00
2023-02-21T02:06:28.741Z,12.10
2023-02-21T02:09:14.205Z,11.60
2023-02-21T02:12:18.686Z,11.80
2023-02-21T02:15:22.692Z,11.00
2023-02-21T02:18:01.745Z,11.40
2023-02-21T02:20:38.390Z,11.80
2023-02-21T02:23:26.696Z,11.70
2023-02-21T02:26:18.363Z,10.90
2023-02-21T02:29:03.996Z,12.10
2023-02-21T02:31:38.905Z,12.20
2023-02-21T02:34:42.919Z,11.90
2023-02-21T02:37:21.826Z,11.20
2023-02-21T02:40:31.470Z,10.90
2023-02-21T02:43:12.863Z,10.80
2023-02-21T02:46:02.281Z,12.00
2023-02-21T02:48:36.450Z,11.60
2023-02-21T02:51:08.244Z,11.50
2023-02-21T02:53:36.042Z,11.30
2023-02-21T02:56:06.324Z,11.60
2023-02-21T02:58:43.591Z,11.90
2023-02-21T03:01:40.457Z,11.30
2023-02-21T03:04:42.541Z,11.00
2023-02-21T03:07:15.378Z,12.10
2023-02-21T03:10:17.804Z,11.90
2023-02-21T03:12:54.566Z,12.40
2023-02-21T03:15:38.210Z,13.40
2023-02-21T03:18:16.148Z,11.60
2023-02-21T03:20:46.773Z,11.40
2023-02-21T03:23:15.838Z,11.30
2023-02-21T03:25:44.868Z,11.00
2023-02-21T03:28:12.507Z,11.00
2023-02-21T03:30:42.128Z,11.00
2023-02-21T03:33:09.061Z,10.70
2023-02-21T03:35:35.837Z,11.00
2023-02-21T03:38:02.568Z,11.30
2023-02-21T03:40:31.703Z,11.90
2023-02-21T03:42:59.941Z,12.60
2023-02-21T03:45:26.917Z,11.70
2023-02-21T03:47:53.642Z,10.80
2023-02-21T03:50:20.423Z,11.00
2023-02-21T03:52:47.095Z,11.50
2023-02-21T03:55:13.908Z,12.70
2023-02-21T03:57:40.600Z,11.60
2023-02-21T04:00:08.130Z,12.40
2023-02-21T04:02:34.814Z,11.80
2023-02-21T04:05:01.547Z,11.00
2023-02-21T04:07:28.360Z,10.70
2023-02-21T04:09:55.005Z,11.20
2023-02-21T04:12:21.822Z,12.20
2023-02-21T04:14:48.527Z,11.00
2023-02-21T04:17:16.221Z,10.90
2023-02-21T04:19:43.200Z,12.30
2023-02-21T04:22:09.971Z,12.70
2023-02-21T04:24:36.687Z,11.80
2023-02-21T04:27:03.489Z,11.70
2023-02-21T04:29:30.318Z,12.00
2023-02-21T04:31:57.197Z,11.80
2023-02-21T04:34:23.938Z,11.10
2023-02-21T04:36:50.678Z,11.90
2023-02-21T04:39:17.360Z,12.80
2023-02-21T04:41:44.121Z,12.80
2023-02-21T04:44:10.827Z,11.80
2023-02-21T04:46:37.635Z,12.00
2023-02-21T04:49:04.620Z,11.80
2023-02-21T04:51:31.622Z,11.20
2023-02-21T04:53:58.282Z,11.80
2023-02-21T04:56:27.628Z,11.40
2023-02-21T04:58:54.605Z,11.10
2023-02-21T05:01:21.900Z,11.50
2023-02-21T05:03:48.934Z,11.20
2023-02-21T05:06:20.299Z,10.90
2023-02-21T05:08:47.139Z,11.10
2023-02-21T05:11:14.320Z,10.50
2023-02-21T05:13:43.339Z,10.80
2023-02-21T05:16:10.097Z,12.00
2023-02-21T05:18:38.203Z,11.50
2023-02-21T05:21:06.992Z,10.80
2023-02-21T05:23:34.425Z,11.00
2023-02-21T05:26:03.728Z,11.70
2023-02-21T05:28:30.467Z,10.90
2023-02-21T05:31:00.732Z,10.60
2023-02-21T05:33:27.605Z,10.40
2023-02-21T05:35:55.000Z,10.20
2023-02-21T05:38:24.179Z,10.20
2023-02-21T05:40:51.000Z,10.30
2023-02-21T05:43:18.290Z,10.40
2023-02-21T05:45:45.158Z,10.50
2023-02-21T05:48:12.198Z,9.90
2023-02-21T05:50:39.716Z,9.70
2023-02-21T05:53:07.037Z,10.00
2023-02-21T05:55:33.862Z,9.80
2023-02-21T05:58:00.695Z,9.90
2023-02-21T06:00:29.505Z,10.00
2023-02-21T06:02:56.847Z,10.50
2023-02-21T06:05:24.393Z,11.30
2023-02-21T06:07:51.650Z,10.60
2023-02-21T06:10:19.284Z,10.60
2023-02-21T06:12:46.177Z,10.50
2023-02-21T06:15:13.172Z,10.70
2023-02-21T06:17:42.086Z,11.50
2023-02-21T06:20:12.442Z,11.90
2023-02-21T06:22:39.244Z,11.40
2023-02-21T06:25:06.531Z,11.30
2023-02-21T06:27:33.168Z,11.00
2023-02-21T06:29:59.900Z,11.20
2023-02-21T06:32:27.693Z,11.30
2023-02-21T06:34:54.583Z,11.30
2023-02-21T06:37:21.268Z,11.40
2023-02-21T06:39:48.045Z,11.50
2023-02-21T06:42:15.733Z,11.20
2023-02-21T06:44:47.040Z,12.70
2023-02-21T06:47:14.626Z,13.70
2023-02-21T06:49:41.682Z,13.90
2023-02-21T06:52:08.871Z,13.60
2023-02-21T06:54:35.976Z,13.40
2023-02-21T06:57:02.819Z,14.10
2023-02-21T06:59:29.795Z,14.50
2023-02-21T07:01:57.078Z,15.20
2023-02-21T07:04:24.484Z,14.50
2023-02-21T07:06:52.139Z,14.80
2023-02-21T07:09:18.842Z,14.50
2023-02-21T07:11:46.971Z,14.10
2023-02-21T07:14:14.882Z,14.40
2023-02-21T07:16:41.648Z,14.60
2023-02-21T07:19:09.396Z,14.60
2023-02-21T07:21:36.433Z,13.00
2023-02-21T07:24:03.414Z,11.10
2023-02-21T07:26:30.144Z,10.80
2023-02-21T07:28:56.904Z,10.20
2023-02-21T07:31:24.080Z,10.20
2023-02-21T07:33:50.869Z,10.70
2023-02-21T07:36:17.718Z,10.20
2023-02-21T07:38:44.461Z,11.60
2023-02-21T07:41:11.179Z,11.30
2023-02-21T07:43:39.239Z,10.40
2023-02-21T07:46:11.240Z,10.70
2023-02-21T07:48:38.281Z,11.10
2023-02-21T07:51:07.155Z,10.30
2023-02-21T07:53:34.424Z,9.80
2023-02-21T07:56:01.207Z,10.00
2023-02-21T07:58:27.856Z,10.20
2023-02-21T08:00:55.556Z,10.60
2023-02-21T08:03:23.021Z,10.10
2023-02-21T08:05:49.753Z,9.80
2023-02-21T08:08:17.244Z,9.50
2023-02-21T08:10:45.006Z,9.80
2023-02-21T08:13:11.722Z,10.20
2023-02-21T08:15:38.455Z,10.00
2023-02-21T08:18:05.280Z,9.80
2023-02-21T08:20:32.614Z,9.80
2023-02-21T08:22:59.282Z,11.20
2023-02-21T08:25:26.076Z,11.80
2023-02-21T08:27:55.181Z,11.70
2023-02-21T08:30:22.430Z,13.30
2023-02-21T08:32:51.155Z,12.90
2023-02-21T08:35:19.796Z,12.90
2023-02-21T08:37:50.896Z,13.00
2023-02-21T08:40:20.659Z,13.60
2023-02-21T08:42:52.224Z,13.90
2023-02-21T08:45:20.816Z,14.10
2023-02-21T08:47:48.138Z,13.90
2023-02-21T08:50:15.207Z,13.90
2023-02-21T08:52:41.967Z,13.50
2023-02-21T08:55:08.784Z,13.50
2023-02-21T08:57:35.751Z,13.30
2023-02-21T09:00:05.714Z,13.00
2023-02-21T09:02:34.371Z,13.00
2023-02-21T09:05:01.111Z,13.00
2023-02-21T09:07:30.420Z,13.40
2023-02-21T09:09:57.503Z,13.40
2023-02-21T09:12:25.019Z,13.40
2023-02-21T09:14:51.763Z,14.20
2023-02-21T09:17:18.613Z,14.20
2023-02-21T09:19:45.278Z,13.60
2023-02-21T09:22:12.025Z,13.60
2023-02-21T09:24:38.669Z,13.70
2023-02-21T09:27:06.274Z,13.50
2023-02-21T09:29:45.456Z,14.20
2023-02-21T09:32:14.147Z,14.10
2023-02-21T09:34:41.443Z,14.20
2023-02-21T09:37:09.234Z,14.50
2023-02-21T09:39:39.272Z,14.30
2023-02-21T09:42:06.229Z,14.50
2023-02-21T09:44:33.054Z,14.30
2023-02-21T09:47:04.799Z,14.10
2023-02-21T09:49:43.456Z,13.50
2023-02-21T09:52:25.164Z,13.60
2023-02-21T09:54:57.535Z,13.20
2023-02-21T09:57:24.327Z,13.50
2023-02-21T09:59:51.195Z,13.40
2023-02-21T10:02:24.747Z,13.30
2023-02-21T10:04:55.486Z,13.70
2023-02-21T10:07:49.762Z,14.30
2023-02-21T10:10:29.396Z,14.20
2023-02-21T10:13:04.880Z,13.80
2023-02-21T10:16:00.440Z,13.60
2023-02-21T10:18:52.170Z,13.70
2023-02-21T10:21:27.295Z,13.80
2023-02-21T10:23:57.877Z,13.60
2023-02-21T10:26:28.296Z,13.60
2023-02-21T10:28:57.011Z,13.70
2023-02-21T10:31:37.009Z,13.30
2023-02-21T10:34:07.653Z,13.20
2023-02-21T10:36:35.158Z,14.00
2023-02-21T10:39:17.870Z,14.60
2023-02-21T10:41:44.735Z,13.90
2023-02-21T10:44:22.121Z,14.40
2023-02-21T10:47:15.898Z,14.00
2023-02-21T10:50:03.964Z,14.00
2023-02-21T10:52:37.565Z,14.10
2023-02-21T10:55:23.072Z,14.60
2023-02-21T10:57:58.976Z,14.20
2023-02-21T11:00:43.115Z,14.30
2023-02-21T11:03:18.760Z,13.90
2023-02-21T11:05:53.446Z,14.50
2023-02-21T11:08:42.391Z,14.40
2023-02-21T11:11:11.066Z,13.60
2023-02-21T11:13:37.924Z,13.90
2023-02-21T11:16:13.379Z,13.60
2023-02-21T11:18:40.096Z,13.40
2023-02-21T11:21:14.627Z,14.10
2023-02-21T11:24:02.833Z,13.60
2023-02-21T11:26:48.931Z,13.90
2023-02-21T11:29:21.201Z,13.70
2023-02-21T11:31:48.461Z,14.10
2023-02-21T11:34:16.658Z,13.40
2023-02-21T11:36:45.759Z,14.10
2023-02-21T11:39:23.387Z,13.60
2023-02-21T11:41:54.896Z,13.50
2023-02-21T11:44:37.991Z,13.80
2023-02-21T11:47:15.015Z,13.20
2023-02-21T11:50:02.816Z,13.60
2023-02-21T11:52:42.415Z,14.20
2023-02-21T11:55:19.527Z,14.40
2023-02-21T11:57:52.303Z,14.00
2023-02-21T12:00:42.973Z,13.90
2023-02-21T12:03:28.148Z,14.30
2023-02-21T12:06:06.849Z,14.10
2023-02-21T12:08:55.681Z,14.80
2023-02-21T12:11:55.030Z,14.40
2023-02-21T12:14:35.744Z,13.90
2023-02-21T12:17:09.790Z,13.90
2023-02-21T12:20:14.084Z,13.20
2023-02-21T12:23:18.004Z,12.90
2023-02-21T12:25:54.022Z,13.60
2023-02-21T12:28:51.514Z,13.40
2023-02-21T12:31:40.514Z,13.40
2023-02-21T12:34:22.305Z,13.40
2023-02-21T12:37:00.666Z,14.00
2023-02-21T12:39:33.380Z,14.20
2023-02-21T12:42:24.790Z,14.30
2023-02-21T12:45:06.395Z,13.70
2023-02-21T12:47:44.830Z,13.80
2023-02-21T12:50:35.362Z,13.90
2023-02-21T12:53:05.197Z,13.80
2023-02-21T12:55:40.496Z,14.10
2023-02-21T12:58:25.053Z,14.00
2023-02-21T13:01:00.463Z,13.90
2023-02-21T13:03:40.120Z,13.90
2023-02-21T13:06:22.939Z,14.10
2023-02-21T13:09:22.135Z,14.20
2023-02-21T13:11:51.888Z,14.20
2023-02-21T13:14:33.260Z,13.70
2023-02-21T13:17:00.254Z,13.50
2023-02-21T13:19:35.098Z,13.70
2023-02-21T13:22:13.174Z,14.10
2023-02-21T13:24:52.962Z,13.80
2023-02-21T13:27:31.434Z,14.30
2023-02-21T13:30:41.718Z,14.40
2023-02-21T13:33:45.607Z,14.70
2023-02-21T13:36:27.705Z,14.30
2023-02-21T13:39:16.066Z,14.40
2023-02-21T13:41:46.583Z,14.40
2023-02-21T13:44:30.253Z,14.00
2023-02-21T13:47:03.608Z,14.20
2023-02-21T13:49:36.634Z,14.10
2023-02-21T13:52:24.032Z,14.20
2023-02-21T13:55:15.261Z,14.40
2023-02-21T13:57:44.677Z,14.50
2023-02-21T14:00:29.675Z,14.90
2023-02-21T14:02:59.340Z,14.90
2023-02-21T14:05:55.104Z,14.60
2023-02-21T14:08:24.567Z,14.50
2023-02-21T14:11:02.472Z,14.10
2023-02-21T14:14:19.789Z,15.20
2023-02-21T14:16:51.836Z,14.80
2023-02-21T14:19:25.210Z,14.70
2023-02-21T14:21:57.082Z,14.40
2023-02-21T14:24:30.069Z,14.50
2023-02-21T14:27:25.880Z,15.00
2023-02-21T14:30:01.764Z,14.80
2023-02-21T14:32:51.289Z,14.70
2023-02-21T14:35:26.391Z,14.40
2023-02-21T14:38:18.187Z,14.90
2023-02-21T14:41:12.163Z,14.80
2023-02-21T14:43:49.969Z,14.60
2023-02-21T14:46:41.764Z,14.10
2023-02-21T14:49:17.757Z,14.30
2023-02-21T14:52:06.425Z,14.70
2023-02-21T14:55:11.933Z,14.60
2023-02-21T14:58:23.444Z,14.30
2023-02-21T15:01:28.484Z,13.90
2023-02-21T15:04:28.525Z,13.90
2023-02-21T15:07:24.400Z,14.30
2023-02-21T15:10:18.864Z,14.40
2023-02-21T15:13:05.089Z,14.70
2023-02-21T15:15:39.113Z,14.60
2023-02-21T15:18:24.154Z,14.60
2023-02-21T15:21:08.064Z,14.30
2023-02-21T15:23:36.974Z,14.40
2023-02-21T15:26:19.149Z,14.10
2023-02-21T15:28:46.443Z,14.40
2023-02-21T15:31:14.471Z,14.10
2023-02-21T15:33:43.323Z,14.40
2023-02-21T15:36:20.446Z,14.50
2023-02-21T15:38:52.318Z,14.30
2023-02-21T15:41:37.164Z,14.10
2023-02-21T15:44:20.802Z,14.30
2023-02-21T15:46:55.139Z,14.30
2023-02-21T15:49:27.752Z,14.60
2023-02-21T15:51:54.659Z,14.20
2023-02-21T15:54:21.405Z,13.60
2023-02-21T15:56:48.534Z,13.60
2023-02-21T15:59:25.739Z,13.80
2023-02-21T16:02:11.012Z,13.20
2023-02-21T16:04:46.953Z,12.60
2023-02-21T16:07:40.158Z,13.00
2023-02-21T16:10:11.719Z,13.10
2023-02-21T16:12:43.460Z,13.00
2023-02-21T16:15:18.986Z,13.10
2023-02-21T16:17:52.115Z,12.90
2023-02-21T16:20:22.719Z,12.30
2023-02-21T16:23:07.175Z,12.80
2023-02-21T16:25:35.098Z,12.40
2023-02-21T16:28:02.664Z,12.70
2023-02-21T16:30:31.570Z,13.30
2023-02-21T16:33:05.891Z,13.40
2023-02-21T16:35:33.947Z,14.10
2023-02-21T16:38:02.045Z,14.10
2023-02-21T16:40:31.387Z,14.20
2023-02-21T16:42:58.890Z,14.50
2023-02-21T16:45:25.756Z,14.50
2023-02-21T16:47:57.830Z,14.30
2023-02-21T16:50:38.918Z,14.60
2023-02-21T16:53:06.293Z,14.50
2023-02-21T16:55:33.855Z,14.50
2023-02-21T16:58:03.474Z,14.10
2023-02-21T17:00:31.947Z,14.20
2023-02-21T17:02:58.696Z,14.10
2023-02-21T17:05:26.415Z,14.00
2023-02-21T17:07:54.484Z,14.40
2023-02-21T17:10:21.607Z,14.60
2023-02-21T17:12:48.366Z,14.40
2023-02-21T17:15:15.269Z,14.20
2023-02-21T17:17:44.465Z,14.20
2023-02-21T17:20:18.523Z,14.50
2023-02-21T17:22:45.401Z,14.30
2023-02-21T17:25:12.105Z,14.00
2023-02-21T17:27:38.931Z,14.10
2023-02-21T17:30:06.982Z,14.20
2023-02-21T17:32:33.916Z,13.60
2023-02-21T17:35:00.737Z,14.10
2023-02-21T17:37:27.564Z,14.10
2023-02-21T17:39:55.790Z,13.80
2023-02-21T17:42:24.008Z,13.50
2023-02-21T17:44:52.000Z,13.50
2023-02-21T17:47:20.206Z,13.40
2023-02-21T17:49:49.589Z,13.20
2023-02-21T17:52:17.209Z,13.30
2023-02-21T17:54:45.904Z,13.30
2023-02-21T17:57:13.370Z,13.40
2023-02-21T17:59:40.130Z,13.40
2023-02-21T18:02:08.137Z,13.20
2023-02-21T18:04:35.289Z,13.30
2023-02-21T18:07:02.211Z,13.40
2023-02-21T18:09:29.243Z,13.80
2023-02-21T18:11:58.745Z,13.60
2023-02-21T18:14:26.755Z,13.50
2023-02-21T18:16:56.441Z,13.40
2023-02-21T18:19:24.687Z,13.00
2023-02-21T18:21:51.658Z,13.20
2023-02-21T18:24:21.423Z,13.10
2023-02-21T18:26:48.461Z,13.40
2023-02-21T18:29:15.332Z,13.40
2023-02-21T18:31:42.148Z,13.40
2023-02-21T18:34:09.186Z,13.60
2023-02-21T18:36:35.966Z,12.50
2023-02-21T18:39:03.218Z,11.70
2023-02-21T18:41:33.189Z,11.20
2023-02-21T18:43:59.853Z,10.80
2023-02-21T18:46:26.891Z,10.60
2023-02-21T18:48:53.706Z,11.10
2023-02-21T18:51:20.732Z,10.90
2023-02-21T18:53:48.602Z,10.80
2023-02-21T18:56:19.312Z,10.70
2023-02-21T18:58:49.809Z,10.50
2023-02-21T19:01:18.514Z,10.50
2023-02-21T19:03:45.667Z,10.40
2023-02-21T19:06:16.560Z,10.40
2023-02-21T19:08:44.900Z,10.30
2023-02-21T19:11:12.969Z,10.50
2023-02-21T19:13:39.714Z,10.30
2023-02-21T19:16:06.767Z,10.20
2023-02-21T19:18:34.573Z,10.60
2023-02-21T19:21:01.240Z,10.60
2023-02-21T19:23:28.167Z,10.20
2023-02-21T19:25:55.516Z,10.20
2023-02-21T19:28:23.972Z,10.00
2023-02-21T19:30:50.795Z,10.40
2023-02-21T19:33:17.586Z,10.70
2023-02-21T19:35:45.771Z,10.30
2023-02-21T19:38:12.516Z,10.10
2023-02-21T19:40:39.562Z,10.10
2023-02-21T19:43:07.462Z,9.90
2023-02-21T19:45:34.652Z,9.90
2023-02-21T19:48:01.627Z,9.90
2023-02-21T19:50:30.714Z,9.80
2023-02-21T19:52:58.760Z,10.00
2023-02-21T19:55:28.360Z,9.90
2023-02-21T19:57:55.233Z,9.80
2023-02-21T20:00:24.584Z,9.70
2023-02-21T20:02:51.305Z,10.10
2023-02-21T20:05:18.392Z,9.90
2023-02-21T20:07:45.679Z,9.80
2023-02-21T20:10:12.971Z,9.70
2023-02-21T20:12:39.733Z,9.80
2023-02-21T20:15:07.390Z,9.70
2023-02-21T20:17:37.859Z,9.70
2023-02-21T20:20:07.131Z,9.70
2023-02-21T20:22:34.005Z,9.90
2023-02-21T20:25:01.750Z,9.70
2023-02-21T20:27:29.287Z,9.60
2023-02-21T20:29:56.189Z,9.60
2023-02-21T20:32:23.534Z,9.60
2023-02-21T20:34:54.287Z,9.60
2023-02-21T20:37:21.308Z,9.60
2023-02-21T20:39:49.615Z,9.50
2023-02-21T20:42:17.256Z,9.50
2023-02-21T20:44:44.417Z,9.50
2023-02-21T20:47:11.702Z,9.50
2023-02-21T20:49:39.206Z,9.50
2023-02-21T20:52:05.991Z,9.40
2023-02-21T20:54:32.764Z,9.30
2023-02-21T20:56:59.575Z,9.40
2023-02-21T20:59:38.736Z,9.50
2023-02-21T21:02:06.058Z,9.50
2023-02-21T21:04:43.149Z,8.80
2023-02-21T21:07:12.941Z,9.00
2023-02-21T21:09:39.906Z,8.80
2023-02-21T21:12:10.059Z,8.70
2023-02-21T21:14:41.435Z,8.70
2023-02-21T21:17:09.323Z,8.70
2023-02-21T21:19:36.891Z,8.60
2023-02-21T21:22:09.855Z,8.60
2023-02-21T21:24:38.024Z,8.50
2023-02-21T21:27:08.644Z,8.50
2023-02-21T21:29:37.944Z,8.60
2023-02-21T21:32:06.026Z,8.80
2023-02-21T21:34:33.244Z,8.60
2023-02-21T21:37:02.182Z,8.50
2023-02-21T21:39:29.104Z,8.50
2023-02-21T21:42:05.685Z,8.40
2023-02-21T21:44:32.983Z,8.40
2023-02-21T21:47:01.089Z,8.40
2023-02-21T21:49:35.213Z,8.50
2023-02-21T21:52:04.577Z,8.50
2023-02-21T21:54:35.927Z,8.70
2023-02-21T21:57:04.480Z,8.40
2023-02-21T21:59:32.614Z,8.30
2023-02-21T22:01:59.853Z,8.30
2023-02-21T22:04:26.954Z,8.30
2023-02-21T22:06:55.670Z,8.30
2023-02-21T22:09:23.127Z,8.50
2023-02-21T22:11:50.379Z,8.50
2023-02-21T22:14:18.370Z,8.40
2023-02-21T22:16:48.062Z,8.30
2023-02-21T22:19:15.709Z,8.40
2023-02-21T22:21:43.993Z,8.40
2023-02-21T22:24:15.184Z,8.30
2023-02-21T22:26:44.761Z,8.80
2023-02-21T22:29:15.529Z,9.80
2023-02-21T22:31:43.580Z,9.50
2023-02-21T22:34:10.547Z,8.70
2023-02-21T22:36:38.336Z,8.30
2023-02-21T22:39:11.061Z,8.30
2023-02-21T22:41:37.973Z,8.20
2023-02-21T22:44:04.614Z,8.20
2023-02-21T22:46:42.638Z,8.20
2023-02-21T22:49:10.156Z,8.00
2023-02-21T22:51:37.348Z,8.10
2023-02-21T22:54:05.892Z,8.00
2023-02-21T22:56:38.371Z,8.10
2023-02-21T22:59:07.622Z,7.90
2023-02-21T23:01:34.754Z,8.20
2023-02-21T23:04:10.788Z,8.60
2023-02-21T23:06:38.278Z,8.70
2023-02-21T23:09:12.082Z,8.50
2023-02-21T23:11:45.880Z,8.40
2023-02-21T23:14:14.416Z,8.40
2023-02-21T23:16:42.056Z,8.10
2023-02-21T23:19:08.871Z,7.90
2023-02-21T23:21:36.655Z,7.90
2023-02-21T23:24:03.563Z,7.90
2023-02-21T23:26:30.266Z,7.80
2023-02-21T23:28:56.937Z,7.90
2023-02-21T23:31:23.688Z,7.60
2023-02-21T23:33:52.818Z,7.80
2023-02-21T23:36:22.659Z,7.70
2023-02-21T23:38:51.189Z,7.80
2023-02-21T23:41:18.514Z,7.60
2023-02-21T23:43:46.690Z,7.70
2023-02-21T23:46:19.990Z,7.70
2023-02-21T23:48:46.737Z,7.70
2023-02-21T23:51:14.316Z,7.70
2023-02-21T23:53:41.768Z,7.80
2023-02-21T23:56:13.036Z,7.80
2023-02-21T23:58:44.476Z,7.70
